Time;durP1;ratioP1;P1;durP2;ratioP2;P2;SDS_P1;SDS_P2;PMS_P1;PMS_P2;Temp;Humidity;BMP_temperature;BMP_pressure;BME280_temperature;BME280_humidity;BME280_pressure;Samples;Min_cycle;Max_cycle;Signal;HPM_P1;HPM_P2
2021/07/22 00:02:00;;;;;;;18.02;13.18;;;;;;;22.38;100.00;102323.97;1944380;73;39795;-74
2021/07/22 00:07:25;;;;;;;13.33;11.87;;;;;;;22.17;100.00;102325.75;1877199;75;86604;-70
2021/07/22 00:12:50;;;;;;;17.73;13.70;;;;;;;22.14;100.00;102329.24;1919740;73;39487;-69
2021/07/22 00:18:15;;;;;;;18.70;14.07;;;;;;;22.02;100.00;102318.55;1889169;74;86261;-76
2021/07/22 00:23:38;;;;;;;15.70;13.75;;;;;;;22.09;100.00;102326.55;1761094;80;85489;-70
2021/07/22 00:29:09;;;;;;;19.45;15.10;;;;;;;22.04;100.00;102317.63;1942509;73;39539;-71
2021/07/22 00:34:33;;;;;;;17.60;14.03;;;;;;;22.02;100.00;102323.38;1776322;79;85628;-69
2021/07/22 00:39:58;;;;;;;16.37;13.75;;;;;;;22.00;100.00;102327.09;1930608;72;39561;-76
2021/07/22 00:45:23;;;;;;;18.85;14.70;;;;;;;21.91;100.00;102329.86;1868331;76;85632;-76
2021/07/22 00:50:48;;;;;;;18.17;14.53;;;;;;;21.97;100.00;102330.02;1921391;73;39622;-71
2021/07/22 00:56:12;;;;;;;19.62;15.32;;;;;;;21.71;100.00;102331.27;1925385;72;39761;-69
2021/07/22 01:01:37;;;;;;;20.68;15.32;;;;;;;21.66;100.00;102328.58;1803867;79;87179;-71
2021/07/22 01:07:01;;;;;;;22.27;16.93;;;;;;;21.44;100.00;102318.71;1916847;73;39628;-70
2021/07/22 01:12:26;;;;;;;21.07;17.20;;;;;;;21.54;100.00;102319.86;1868145;76;86062;-76
2021/07/22 01:17:51;;;;;;;25.85;18.80;;;;;;;21.42;100.00;102329.53;1934877;72;39673;-70
2021/07/22 01:23:15;;;;;;;22.13;17.40;;;;;;;21.29;100.00;102322.79;1880497;75;85296;-70
2021/07/22 01:28:39;;;;;;;23.03;16.63;;;;;;;21.11;100.00;102331.42;1868102;75;85447;-70
2021/07/22 01:36:51;;;;;;;25.43;16.80;;;;;;;21.14;100.00;102316.09;2000967;69;39557;-70
2021/07/22 01:39:21;;;;;;;28.30;19.83;;;;;;;20.98;100.00;102328.07;1935272;73;938727;-70
2021/07/22 01:41:51;;;;;;;26.17;18.37;;;;;;;20.96;100.00;102327.00;1848333;76;940977;-70
2021/07/22 01:44:21;;;;;;;31.80;20.60;;;;;;;20.84;100.00;102330.37;1868976;75;940746;-76
2021/07/22 01:46:51;;;;;;;29.60;19.50;;;;;;;20.90;100.00;102329.67;1882341;75;940937;-67
2021/07/22 01:49:21;;;;;;;30.13;21.23;;;;;;;20.87;100.00;102325.52;1879483;74;940806;-76
2021/07/22 01:51:52;;;;;;;25.67;17.07;;;;;;;20.87;100.00;102328.91;1900081;74;941005;-70
2021/07/22 01:54:22;;;;;;;28.70;18.47;;;;;;;20.79;100.00;102329.67;1894776;74;940791;-70
2021/07/22 01:56:52;;;;;;;26.60;17.77;;;;;;;20.69;100.00;102334.97;1915575;73;940845;-76
2021/07/22 01:59:22;;;;;;;31.52;20.90;;;;;;;20.55;100.00;102332.75;1894754;74;940904;-76
2021/07/22 02:01:52;;;;;;;29.23;19.93;;;;;;;20.55;100.00;102326.27;1880791;75;940906;-76
2021/07/22 02:04:22;;;;;;;29.97;19.63;;;;;;;20.69;100.00;102336.95;1894434;74;941105;-74
2021/07/22 02:06:52;;;;;;;33.50;19.93;;;;;;;20.78;100.00;102335.89;1882287;73;940756;-76
2021/07/22 02:09:22;;;;;;;29.47;20.97;;;;;;;20.70;100.00;102334.41;1894671;75;940889;-76
2021/07/22 02:11:52;;;;;;;34.13;22.20;;;;;;;20.63;100.00;102330.58;1915720;73;940859;-76
2021/07/22 02:14:23;;;;;;;34.73;21.93;;;;;;;20.55;100.00;102328.52;1894598;73;939426;-76
2021/07/22 02:16:55;;;;;;;38.80;25.95;;;;;;;20.69;100.00;102331.31;1867111;74;940886;-70
2021/07/22 02:19:42;;;;;;;37.00;23.87;;;;;;;20.60;100.00;102329.81;1912644;74;940789;-70
2021/07/22 02:25:36;;;;;;;39.30;24.40;;;;;;;20.57;100.00;102327.64;1876760;75;86795;-74
2021/07/22 02:31:16;;;;;;;40.20;24.70;;;;;;;20.69;100.00;102328.48;1943506;73;39738;-76
2021/07/22 02:37:03;;;;;;;43.30;26.50;;;;;;;20.53;100.00;102334.23;1919990;73;39623;-76
2021/07/22 02:42:27;;;;;;;39.87;25.03;;;;;;;20.55;100.00;102329.08;1891478;74;86426;-76
2021/07/22 02:47:52;;;;;;;39.93;25.03;;;;;;;20.45;100.00;102339.45;1945655;73;39854;-67
2021/07/22 02:53:16;;;;;;;45.52;27.73;;;;;;;20.37;100.00;102340.20;1875959;74;86653;-76
2021/07/22 02:58:41;;;;;;;38.93;24.70;;;;;;;20.19;100.00;102333.25;1948206;73;39614;-76
2021/07/22 03:04:06;;;;;;;37.73;24.73;;;;;;;20.07;100.00;102335.16;1895003;73;39466;-70
2021/07/22 03:09:30;;;;;;;41.77;27.37;;;;;;;19.97;100.00;102323.53;1776381;79;86381;-76
2021/07/22 03:14:55;;;;;;;43.40;26.93;;;;;;;19.97;100.00;102333.41;1898615;73;40406;-69
2021/07/22 03:20:26;;;;;;;43.63;26.50;;;;;;;20.04;100.00;102336.36;1892445;74;86424;-70
2021/07/22 03:25:49;;;;;;;46.50;27.30;;;;;;;19.88;100.00;102334.44;1946224;73;39841;-70
2021/07/22 03:31:13;;;;;;;48.03;29.00;;;;;;;19.84;100.00;102333.39;1896933;74;86403;-70
2021/07/22 03:36:38;;;;;;;50.70;30.90;;;;;;;19.77;100.00;102329.55;1760875;80;85476;-76
2021/07/22 03:42:02;;;;;;;55.40;30.50;;;;;;;19.78;100.00;102328.41;1943636;73;39598;-75
2021/07/22 03:47:27;;;;;;;50.43;29.10;;;;;;;19.64;100.00;102331.77;1866404;75;85692;-69
2021/07/22 03:52:56;;;;;;;44.97;27.17;;;;;;;19.63;100.00;102339.99;1945765;73;41502;-76
2021/07/22 03:58:21;;;;;;;48.67;27.67;;;;;;;19.51;100.00;102337.64;1875955;75;86747;-70
2021/07/22 04:03:46;;;;;;;47.83;27.27;;;;;;;19.43;100.00;102337.52;1947289;73;39722;-69
2021/07/22 04:09:10;;;;;;;53.63;30.03;;;;;;;19.54;100.00;102340.44;1942406;73;39507;-70
2021/07/22 04:14:34;;;;;;;54.30;31.23;;;;;;;19.39;100.00;102334.45;1946150;71;86639;-70
2021/07/22 04:20:00;;;;;;;47.90;29.40;;;;;;;19.54;100.00;102339.03;1944169;73;39528;-76
2021/07/22 04:25:24;;;;;;;50.87;29.80;;;;;;;19.52;100.00;102339.33;1873896;75;86461;-76
2021/07/22 04:30:49;;;;;;;50.53;30.40;;;;;;;19.41;100.00;102342.05;1946164;73;39587;-70
2021/07/22 04:36:13;;;;;;;56.30;29.80;;;;;;;19.43;100.00;102334.13;1929425;72;39769;-70
2021/07/22 04:41:37;;;;;;;45.83;28.33;;;;;;;19.27;100.00;102338.34;1776377;79;86456;-76
2021/07/22 04:47:02;;;;;;;47.43;28.50;;;;;;;19.35;100.00;102338.20;1933557;72;39803;-75
2021/07/22 04:52:26;;;;;;;46.97;28.77;;;;;;;19.37;100.00;102346.62;1866437;75;86738;-69
2021/07/22 04:57:59;;;;;;;54.23;30.03;;;;;;;19.44;100.00;102345.67;1934240;72;39485;-76
2021/07/22 05:03:24;;;;;;;44.87;26.93;;;;;;;19.37;100.00;102354.24;1830944;78;86249;-69
2021/07/22 05:08:48;;;;;;;48.17;28.33;;;;;;;19.32;100.00;102350.09;1919499;73;39608;-71
2021/07/22 05:14:13;;;;;;;50.73;29.80;;;;;;;19.40;100.00;102357.84;1914504;73;70617;-69
2021/07/22 05:19:38;;;;;;;48.00;27.67;;;;;;;19.57;100.00;102352.50;1776217;80;85907;-69
2021/07/22 05:25:01;;;;;;;50.37;28.70;;;;;;;19.61;100.00;102361.16;1896779;73;39528;-75
2021/07/22 05:30:25;;;;;;;47.00;26.70;;;;;;;19.55;100.00;102360.45;1836326;77;86320;-69
2021/07/22 05:35:51;;;;;;;45.10;26.90;;;;;;;19.66;100.00;102359.67;1945752;73;39619;-77
2021/07/22 05:41:14;;;;;;;42.97;26.03;;;;;;;19.88;100.00;102364.89;1890489;74;86568;-74
2021/07/22 05:46:39;;;;;;;49.57;27.77;;;;;;;19.88;100.00;102364.89;1866343;75;86429;-76
2021/07/22 05:52:04;;;;;;;46.67;28.00;;;;;;;19.95;100.00;102361.08;1912350;73;39640;-76
2021/07/22 05:57:28;;;;;;;48.27;28.17;;;;;;;20.05;100.00;102370.48;1867858;75;86104;-75
2021/07/22 06:02:59;;;;;;;51.40;28.43;;;;;;;20.21;100.00;102368.45;1930449;73;40501;-70
2021/07/22 06:08:23;;;;;;;49.57;28.90;;;;;;;20.30;100.00;102368.59;1888964;75;86409;-69
2021/07/22 06:13:48;;;;;;;50.40;28.07;;;;;;;20.32;100.00;102367.11;1947119;73;39781;-76
2021/07/22 06:19:12;;;;;;;46.17;28.33;;;;;;;20.44;100.00;102368.02;1941775;73;39669;-76
2021/07/22 06:24:36;;;;;;;48.57;28.13;;;;;;;20.52;100.00;102366.43;1893234;74;86531;-71
2021/07/22 06:30:02;;;;;;;44.30;27.53;;;;;;;20.63;100.00;102368.70;1932354;72;39590;-76
2021/07/22 06:35:25;;;;;;;47.07;26.83;;;;;;;20.81;100.00;102363.50;1866406;75;86466;-68
2021/07/22 06:40:50;;;;;;;37.97;24.70;;;;;;;20.88;100.00;102357.39;1901748;73;39603;-70
2021/07/22 06:46:15;;;;;;;43.23;25.57;;;;;;;20.97;100.00;102356.89;1890630;74;85814;-77
2021/07/22 06:51:39;;;;;;;38.50;25.33;;;;;;;21.10;100.00;102358.84;1886465;75;86626;-75
2021/07/22 06:57:05;;;;;;;41.10;25.83;;;;;;;21.11;100.00;102344.14;1944760;73;39579;-75
2021/07/22 07:02:30;;;;;;;44.63;26.40;;;;;;;21.32;100.00;102354.64;1776798;79;86338;-75
2021/07/22 07:07:57;;;;;;;41.70;25.17;;;;;;;21.51;100.00;102351.63;1943883;73;39557;-70
2021/07/22 07:13:21;;;;;;;38.27;24.33;;;;;;;21.82;100.00;102345.98;1876588;75;85664;-74
2021/07/22 07:18:46;;;;;;;37.33;23.62;;;;;;;21.94;100.00;102342.58;1922726;73;39705;-78
2021/07/22 07:24:13;;;;;;;42.88;28.27;;;;;;;21.89;100.00;102350.59;1910605;73;39599;-75
2021/07/22 07:29:37;;;;;;;37.60;24.23;;;;;;;21.91;100.00;102348.83;1882905;74;85940;-68
2021/07/22 07:35:03;;;;;;;37.28;23.50;;;;;;;21.92;100.00;102355.62;1912967;73;39598;-70
2021/07/22 07:40:27;;;;;;;34.70;24.37;;;;;;;22.17;100.00;102350.64;1866504;75;86631;-71
2021/07/22 07:45:53;;;;;;;36.42;22.05;;;;;;;22.28;100.00;102357.44;1934232;72;39614;-73
2021/07/22 07:51:18;;;;;;;31.40;19.48;;;;;;;22.53;100.00;102349.02;1876835;76;86324;-75
2021/07/22 07:56:46;;;;;;;32.80;21.55;;;;;;;23.02;100.00;102353.41;1922379;73;39435;-71
2021/07/22 08:02:09;;;;;;;31.40;20.88;;;;;;;23.33;100.00;102346.15;1942768;73;39511;-76
2021/07/22 08:07:40;;;;;;;26.50;18.67;;;;;;;23.54;100.00;102338.63;1783995;79;86484;-72
2021/07/22 08:13:08;;;;;;;30.82;20.95;;;;;;;23.83;100.00;102343.55;1931487;73;39867;-70
2021/07/22 08:18:33;;;;;;;27.60;18.17;;;;;;;24.06;100.00;102334.20;1833339;78;86447;-75
2021/07/22 08:23:59;;;;;;;31.97;21.40;;;;;;;24.32;100.00;102334.09;1901449;73;39641;-72
2021/07/22 08:29:25;;;;;;;24.98;17.98;;;;;;;24.48;100.00;102330.91;1876872;75;86411;-77
2021/07/22 08:34:50;;;;;;;21.87;17.05;;;;;;;24.74;100.00;102327.88;1945660;73;39611;-76
2021/07/22 08:40:15;;;;;;;24.35;16.62;;;;;;;25.04;100.00;102326.66;1880234;75;86425;-70
2021/07/22 08:45:41;;;;;;;22.02;15.32;;;;;;;25.37;100.00;102323.24;1881605;75;86829;-73
2021/07/22 08:51:08;;;;;;;22.75;16.02;;;;;;;25.19;100.00;102324.63;1942831;73;39720;-75
2021/07/22 08:56:34;;;;;;;18.35;14.63;;;;;;;25.55;100.00;102327.36;1776043;79;86562;-75
2021/07/22 09:02:05;;;;;;;22.65;14.85;;;;;;;25.70;100.00;102320.42;1917012;73;39789;-75
2021/07/22 09:07:46;;;;;;;17.48;13.43;;;;;;;25.75;100.00;102317.95;1947712;73;39804;-70
2021/07/22 09:13:26;;;;;;;17.42;13.25;;;;;;;25.92;100.00;102316.90;1908158;73;39881;-72
2021/07/22 09:18:51;;;;;;;15.68;11.25;;;;;;;25.98;100.00;102322.58;1946129;73;39749;-71
2021/07/22 09:24:14;;;;;;;17.42;13.65;;;;;;;26.00;100.00;102310.26;1891158;74;86067;-72
2021/07/22 09:29:43;;;;;;;16.97;12.75;;;;;;;26.09;100.00;102313.83;1792510;79;86220;-73
2021/07/22 09:35:11;;;;;;;14.47;11.78;;;;;;;26.20;100.00;102317.30;1912074;73;39588;-73
2021/07/22 09:40:39;;;;;;;14.23;11.45;;;;;;;26.13;100.00;102306.23;1776359;80;86761;-74
2021/07/22 09:46:04;;;;;;;20.25;15.68;;;;;;;26.05;100.00;102315.14;1912442;73;39841;-73
2021/07/22 09:51:34;;;;;;;17.48;13.93;;;;;;;26.03;100.00;102313.81;1862499;76;85451;-71
2021/07/22 09:57:06;;;;;;;15.53;12.33;;;;;;;26.19;100.00;102310.48;1944039;72;40111;-71
2021/07/22 10:02:31;;;;;;;15.83;12.30;;;;;;;26.20;100.00;102307.91;1824140;76;86242;-77
2021/07/22 10:07:59;;;;;;;15.53;12.17;;;;;;;26.43;100.00;102300.55;1944662;73;39644;-73
2021/07/22 10:13:28;;;;;;;14.95;11.18;;;;;;;26.52;100.00;102291.86;1835979;77;86613;-73
2021/07/22 10:18:57;;;;;;;12.90;9.75;;;;;;;26.55;100.00;102294.81;1934772;72;39619;-71
2021/07/22 10:24:21;;;;;;;13.50;9.53;;;;;;;26.72;100.00;102291.69;1881386;75;86079;-71
2021/07/22 10:29:49;;;;;;;13.58;11.75;;;;;;;26.66;100.00;102288.01;1947360;73;39783;-70
2021/07/22 10:51:12;;;;;;;14.25;9.18;;;;;;;26.28;100.00;102291.28;1935752;73;32087;-74
2021/07/22 10:56:53;;;;;;;13.20;9.35;;;;;;;26.57;100.00;102291.63;1969451;72;31610;-71
2021/07/22 11:03:12;;;;;;;10.30;8.60;;;;;;;26.53;100.00;102279.25;1934721;72;39615;-72
2021/07/22 11:09:15;;;;;;;14.75;9.88;;;;;;;26.66;100.00;102280.29;1903199;72;39779;-72
2021/07/22 11:14:44;;;;;;;11.35;9.18;;;;;;;26.21;100.00;102276.81;1931745;73;39812;-70
2021/07/22 11:20:34;;;;;;;10.53;8.10;;;;;;;26.41;100.00;102272.98;1950616;72;39676;-74
2021/07/22 11:26:07;;;;;;;10.43;7.22;;;;;;;26.60;100.00;102276.64;1936148;72;39613;-72
2021/07/22 11:31:33;;;;;;;9.98;7.45;;;;;;;26.25;100.00;102218.77;1738982;74;85437;-74
2021/07/22 11:36:59;;;;;;;8.85;6.70;;;;;;;26.60;100.00;102256.09;1910134;73;39616;-71
2021/07/22 11:42:33;;;;;;;7.15;5.87;;;;;;;26.47;100.00;102242.23;1829811;76;86426;-71
2021/07/22 11:47:58;;;;;;;8.45;6.92;;;;;;;26.57;100.00;102241.11;1951942;72;39568;-73
2021/07/22 11:53:25;;;;;;;7.65;6.17;;;;;;;26.54;100.00;102235.31;1880807;75;86148;-71
2021/07/22 11:58:52;;;;;;;9.03;7.50;;;;;;;26.59;100.00;102228.77;1953105;72;39624;-71
2021/07/22 12:04:29;;;;;;;8.65;6.33;;;;;;;26.44;100.00;102224.44;1842110;76;86615;-70
2021/07/22 12:09:55;;;;;;;7.28;6.37;;;;;;;26.55;100.00;102214.17;1925892;73;39763;-70
2021/07/22 12:15:23;;;;;;;8.88;6.45;;;;;;;26.67;100.00;102214.13;1871375;75;86445;-69
2021/07/22 12:20:47;;;;;;;6.85;5.78;;;;;;;26.64;100.00;102204.30;1956985;72;39729;-70
2021/07/22 12:26:23;;;;;;;10.08;7.72;;;;;;;26.71;100.00;102206.50;1884194;73;86404;-71
2021/07/22 12:31:58;;;;;;;7.10;6.17;;;;;;;26.76;100.00;102201.98;1952320;72;42299;-70
2021/07/22 12:37:56;;;;;;;6.67;6.08;;;;;;;26.83;100.00;102194.24;1888457;74;86549;-71
2021/07/22 12:43:52;;;;;;;7.83;6.03;;;;;;;26.92;100.00;102190.64;1912273;74;86516;-69
2021/07/22 12:49:37;;;;;;;6.08;5.28;;;;;;;26.98;100.00;102180.64;1887352;76;86553;-71
2021/07/22 12:55:04;;;;;;;5.95;5.17;;;;;;;26.88;100.00;102178.30;1924148;72;39550;-72
2021/07/22 13:00:42;;;;;;;7.20;6.50;;;;;;;26.80;100.00;102165.84;1881009;75;87340;-71
2021/07/22 13:06:10;;;;;;;6.00;5.35;;;;;;;26.79;100.00;102165.59;1941637;73;39597;-73
2021/07/22 13:12:06;;;;;;;6.00;5.37;;;;;;;26.82;100.00;102154.08;1826580;77;86311;-70
2021/07/22 13:17:43;;;;;;;5.80;5.22;;;;;;;26.82;100.00;102152.06;1947410;72;39702;-70
2021/07/22 13:23:19;;;;;;;7.03;5.97;;;;;;;26.81;100.00;102154.67;1842166;76;86436;-70
2021/07/22 13:29:09;;;;;;;6.28;5.50;;;;;;;27.26;100.00;102144.90;1888714;74;39547;-70
2021/07/22 13:34:37;;;;;;;7.22;5.62;;;;;;;27.14;100.00;102138.09;1804661;78;86336;-69
2021/07/22 13:40:02;;;;;;;7.05;6.20;;;;;;;26.68;100.00;102139.66;1951494;73;39475;-70
2021/07/22 13:45:27;;;;;;;6.58;5.87;;;;;;;27.34;100.00;102123.31;1869594;75;86675;-71
2021/07/22 13:50:53;;;;;;;6.97;5.33;;;;;;;27.39;100.00;102133.62;1931859;72;39790;-72
2021/07/22 13:56:18;;;;;;;6.87;5.90;;;;;;;27.49;100.00;102119.66;1887546;75;85462;-71
2021/07/22 14:01:43;;;;;;;10.93;5.60;;;;;;;27.96;100.00;102113.02;1932297;72;39602;-71
2021/07/22 14:07:08;;;;;;;7.20;6.50;;;;;;;27.95;100.00;102115.64;1951110;72;39624;-73
2021/07/22 14:12:35;;;;;;;9.05;6.33;;;;;;;28.00;100.00;102106.78;1871844;75;86614;-73
2021/07/22 14:18:10;;;;;;;6.85;6.15;;;;;;;27.82;100.00;102106.97;1950556;72;39487;-72
2021/07/22 14:23:35;;;;;;;10.90;6.30;;;;;;;27.76;100.00;102092.17;1807011;79;86503;-70
2021/07/22 14:29:01;;;;;;;11.05;6.10;;;;;;;27.61;100.00;102088.74;1951962;72;39750;-73
2021/07/22 14:34:30;;;;;;;8.10;6.53;;;;;;;27.80;100.00;102083.09;1888681;74;86143;-70
2021/07/22 14:40:00;;;;;;;7.92;6.20;;;;;;;27.93;100.00;102082.36;1905859;72;39628;-70
2021/07/22 14:45:26;;;;;;;7.95;6.40;;;;;;;27.94;100.00;102082.59;1877434;73;86039;-70
2021/07/22 14:50:51;;;;;;;12.93;6.40;;;;;;;28.05;100.00;102081.61;1933797;72;39819;-68
2021/07/22 14:56:15;;;;;;;6.65;5.90;;;;;;;27.83;100.00;102068.05;1842338;76;86596;-71
2021/07/22 15:01:40;;;;;;;10.65;6.92;;;;;;;27.85;100.00;102069.12;1955018;73;39614;-69
2021/07/22 15:07:08;;;;;;;10.23;6.72;;;;;;;27.73;100.00;102064.34;1918217;72;40270;-73
2021/07/22 15:12:33;;;;;;;8.38;6.40;;;;;;;27.85;100.00;102057.70;1829258;78;86196;-70
2021/07/22 15:17:57;;;;;;;7.47;6.53;;;;;;;28.00;100.00;102053.34;1940933;72;39705;-74
2021/07/22 15:23:33;;;;;;;9.30;7.00;;;;;;;27.74;100.00;102047.45;1844276;75;86109;-74
2021/07/22 15:29:15;;;;;;;7.17;6.28;;;;;;;27.64;100.00;102045.79;1951453;72;39508;-73
2021/07/22 15:34:41;;;;;;;7.17;5.95;;;;;;;27.76;100.00;102045.06;1955248;73;39439;-75
2021/07/22 15:40:08;;;;;;;8.68;6.67;;;;;;;27.88;100.00;102044.92;1951325;72;39461;-75
2021/07/22 15:45:34;;;;;;;9.30;6.67;;;;;;;27.99;100.00;102027.99;1986658;68;86130;-75
2021/07/22 15:50:59;;;;;;;8.38;6.60;;;;;;;28.12;100.00;102023.81;1924434;72;39677;-79
2021/07/22 15:56:23;;;;;;;9.23;6.80;;;;;;;28.10;100.00;102036.84;1889671;73;86147;-79
2021/07/22 16:01:54;;;;;;;7.30;6.55;;;;;;;27.95;100.00;102042.20;1912064;72;39465;-71
2021/07/22 16:07:19;;;;;;;8.65;6.55;;;;;;;27.71;100.00;102033.92;1842803;76;86249;-75
2021/07/22 16:12:44;;;;;;;7.55;6.25;;;;;;;27.45;100.00;102018.82;1928927;73;39507;-73
2021/07/22 16:18:09;;;;;;;8.28;6.08;;;;;;;27.44;100.00;102020.61;1922187;72;39578;-72
2021/07/22 16:23:32;;;;;;;8.70;6.83;;;;;;;27.53;100.00;102015.55;1858820;75;86696;-72
2021/07/22 16:29:21;;;;;;;9.45;6.90;;;;;;;27.76;100.00;102017.10;1906336;72;39695;-74
2021/07/22 16:34:59;;;;;;;7.15;6.45;;;;;;;27.98;100.00;102006.37;1953199;72;39635;-71
2021/07/22 16:40:40;;;;;;;7.70;6.90;;;;;;;27.96;100.00;102001.02;1796077;78;86348;-74
2021/07/22 16:46:22;;;;;;;7.47;6.67;;;;;;;27.88;100.00;101996.95;1856509;77;86449;-72
2021/07/22 16:52:03;;;;;;;10.03;6.58;;;;;;;27.42;100.00;101993.89;1953202;72;40118;-73
2021/07/22 16:57:46;;;;;;;7.75;6.45;;;;;;;27.16;100.00;101990.22;1887375;74;40289;-75
2021/07/22 17:03:33;;;;;;;8.83;6.78;;;;;;;26.99;100.00;101984.91;1803524;78;86666;-72
2021/07/22 17:09:01;;;;;;;7.78;6.97;;;;;;;27.12;100.00;101979.92;1952923;72;39672;-72
2021/07/22 17:14:24;;;;;;;7.55;6.65;;;;;;;27.21;100.00;101975.44;1869442;75;86533;-73
2021/07/22 17:19:49;;;;;;;7.20;6.42;;;;;;;27.35;100.00;101972.89;1945998;72;39828;-73
2021/07/22 17:25:15;;;;;;;7.65;6.50;;;;;;;27.35;100.00;101973.73;1843125;76;86261;-70
2021/07/22 17:30:42;;;;;;;7.78;6.53;;;;;;;27.46;100.00;101966.84;1955820;72;39507;-74
2021/07/22 17:36:09;;;;;;;7.25;6.55;;;;;;;27.51;100.00;101965.97;1921159;72;39466;-74
2021/07/22 17:41:36;;;;;;;6.83;6.08;;;;;;;27.56;100.00;101959.97;1805381;78;86224;-71
2021/07/22 17:47:07;;;;;;;7.00;6.22;;;;;;;27.54;100.00;101962.98;1922627;72;39509;-77
2021/07/22 17:52:36;;;;;;;8.85;6.25;;;;;;;27.54;100.00;101960.95;1806211;78;85936;-78
2021/07/22 18:00:53;;;;;;;7.40;6.28;;;;;;;27.42;100.00;101956.78;1889167;74;39625;-81
2021/07/22 18:06:32;;;;;;;6.45;5.85;;;;;;;27.38;100.00;101953.62;1883342;73;86141;-76
2021/07/22 18:14:42;;;;;;;6.25;5.60;;;;;;;27.00;100.00;101961.50;1927231;72;39683;-74
2021/07/22 18:17:12;;;;;;;8.20;6.40;;;;;;;26.89;100.00;101964.07;1865853;76;933793;-75
2021/07/22 18:19:43;;;;;;;7.45;5.83;;;;;;;26.79;100.00;101964.59;1794412;78;934140;-76
2021/07/22 18:25:20;;;;;;;9.78;6.28;;;;;;;26.70;100.00;101954.80;1843180;76;86462;-75
2021/07/22 18:34:33;;;;;;;6.50;5.72;;;;;;;26.71;100.00;101955.63;1901024;74;39467;-72
2021/07/22 18:37:10;;;;;;;6.20;5.60;;;;;;;26.74;100.00;101964.89;1825385;76;933838;-74
2021/07/22 18:39:41;;;;;;;6.40;5.90;;;;;;;26.75;100.00;101970.80;1837629;76;933809;-80
2021/07/22 18:42:14;;;;;;;6.90;6.03;;;;;;;26.68;100.00;101970.62;1837550;76;935891;-75
2021/07/22 18:44:46;;;;;;;6.83;6.08;;;;;;;26.79;100.00;101977.41;1837350;76;934005;-78
2021/07/22 18:47:24;;;;;;;7.65;5.90;;;;;;;26.58;100.00;101970.57;1837238;76;935492;-76
2021/07/22 18:49:54;;;;;;;8.00;5.87;;;;;;;26.68;100.00;101972.05;1825472;76;935735;-73
2021/07/22 18:52:24;;;;;;;8.15;6.17;;;;;;;26.59;100.00;101976.51;1837300;76;935764;-76
2021/07/22 18:54:55;;;;;;;6.53;5.92;;;;;;;26.64;100.00;101979.09;1825648;75;936084;-77
2021/07/22 18:57:25;;;;;;;6.87;6.17;;;;;;;26.68;100.00;101976.33;1837417;76;935850;-76
2021/07/22 18:59:55;;;;;;;7.08;5.92;;;;;;;26.60;100.00;101978.17;1825503;75;935781;-76
2021/07/22 19:02:26;;;;;;;7.25;6.22;;;;;;;26.57;100.00;101974.61;1837426;75;936100;-76
2021/07/22 19:05:00;;;;;;;6.37;5.78;;;;;;;26.47;100.00;101978.62;1825474;75;935431;-73
2021/07/22 19:07:30;;;;;;;7.23;5.83;;;;;;;26.44;100.00;101979.36;1837338;76;935854;-75
2021/07/22 19:10:08;;;;;;;7.40;5.90;;;;;;;26.40;100.00;101979.86;1825442;76;941711;-73
2021/07/22 19:12:38;;;;;;;6.42;5.83;;;;;;;26.45;100.00;101985.27;1837201;76;934731;-75
2021/07/22 19:15:13;;;;;;;6.45;5.70;;;;;;;26.28;100.00;101980.15;1825223;75;936584;-74
2021/07/22 19:20:41;;;;;;;7.53;6.42;;;;;;;26.12;100.00;101989.23;1886855;74;86661;-76
2021/07/22 19:26:05;;;;;;;6.65;5.95;;;;;;;26.18;100.00;101974.14;1922132;73;39592;-76
2021/07/22 19:31:32;;;;;;;6.45;5.85;;;;;;;26.06;100.00;101980.70;1884932;73;86461;-76
2021/07/22 19:36:57;;;;;;;7.12;6.42;;;;;;;25.92;100.00;101981.73;1926019;73;39646;-76
2021/07/22 19:42:22;;;;;;;8.35;6.00;;;;;;;25.77;100.00;101981.06;1884838;75;86217;-73
2021/07/22 19:47:46;;;;;;;7.10;6.17;;;;;;;25.53;100.00;101987.68;1913034;72;39749;-75
2021/07/22 19:53:14;;;;;;;8.60;6.78;;;;;;;25.36;100.00;101987.33;1877996;76;86641;-74
2021/07/22 19:58:41;;;;;;;7.45;6.37;;;;;;;25.15;100.00;101986.65;1949823;73;39521;-82
2021/07/22 20:04:08;;;;;;;7.53;6.80;;;;;;;25.10;100.00;101988.89;1921444;72;39545;-77
2021/07/22 20:09:39;;;;;;;8.73;6.92;;;;;;;25.12;100.00;101989.34;1823212;77;86531;-76
2021/07/22 20:15:07;;;;;;;8.35;6.97;;;;;;;25.13;100.00;101993.27;1927639;73;39755;-73
2021/07/22 20:20:35;;;;;;;6.85;6.15;;;;;;;25.08;100.00;102002.03;1877500;75;85759;-76
2021/07/22 20:26:08;;;;;;;8.05;6.70;;;;;;;24.73;100.00;102015.84;1951608;73;40091;-80
2021/07/22 20:31:57;;;;;;;7.45;6.58;;;;;;;24.54;100.00;102017.01;1783472;78;86825;-82
2021/07/22 20:37:21;;;;;;;7.53;6.62;;;;;;;24.68;100.00;102023.79;1887052;75;86753;-77
2021/07/22 20:42:46;;;;;;;8.28;6.62;;;;;;;24.43;100.00;102022.30;1930741;73;39484;-73
2021/07/22 20:48:13;;;;;;;7.87;6.65;;;;;;;24.47;100.00;102022.45;1949358;72;39503;-84
2021/07/22 20:53:41;;;;;;;7.87;6.40;;;;;;;24.44;100.00;102019.70;1886557;75;86367;-69
2021/07/22 20:59:06;;;;;;;7.80;6.97;;;;;;;24.43;100.00;102020.88;1951797;72;39669;-74
2021/07/22 21:04:30;;;;;;;8.13;7.33;;;;;;;24.09;100.00;102026.08;1829783;77;85597;-72
2021/07/22 21:09:55;;;;;;;7.37;6.65;;;;;;;23.79;100.00;102022.50;1953144;72;39527;-78
2021/07/22 21:15:22;;;;;;;8.63;7.17;;;;;;;23.84;100.00;102016.00;1856064;75;85296;-72
2021/07/22 21:20:47;;;;;;;8.18;6.45;;;;;;;23.56;100.00;102018.58;1930371;72;39682;-77
2021/07/22 21:26:10;;;;;;;7.47;6.67;;;;;;;23.53;100.00;102022.70;1899492;72;39406;-73
2021/07/22 21:31:35;;;;;;;8.03;7.15;;;;;;;23.44;100.00;102023.34;1830733;75;86170;-80
2021/07/22 21:37:00;;;;;;;11.00;7.03;;;;;;;23.18;100.00;102024.06;1952373;72;39664;-76
2021/07/22 21:42:25;;;;;;;7.58;6.75;;;;;;;23.06;100.00;102015.68;1869432;75;86412;-78
2021/07/22 21:47:49;;;;;;;9.38;6.72;;;;;;;22.92;100.00;102029.86;1933943;72;39467;-76
2021/07/22 21:53:16;;;;;;;7.45;6.67;;;;;;;22.69;100.00;102026.45;1901428;73;86828;-72
2021/07/22 21:58:44;;;;;;;7.95;7.15;;;;;;;22.36;100.00;102030.44;1955415;73;39563;-73
2021/07/22 22:04:09;;;;;;;8.68;7.75;;;;;;;22.43;100.00;102021.41;1920395;73;39724;-76
2021/07/22 22:09:33;;;;;;;8.53;7.70;;;;;;;22.34;100.00;102032.75;1881805;73;86707;-74
2021/07/22 22:15:00;;;;;;;9.43;7.33;;;;;;;22.37;100.00;102029.86;1924375;73;39590;-76
2021/07/22 22:20:25;;;;;;;8.13;7.33;;;;;;;22.39;100.00;102036.00;1871523;75;86470;-73
2021/07/22 22:25:48;;;;;;;8.20;7.30;;;;;;;22.38;100.00;102039.41;1934760;72;39512;-79
2021/07/22 22:31:13;;;;;;;10.20;7.47;;;;;;;22.04;100.00;102041.70;1857166;75;86263;-80
2021/07/22 22:36:39;;;;;;;10.58;8.08;;;;;;;21.98;100.00;102045.05;1836725;77;86449;-80
2021/07/22 22:42:05;;;;;;;7.72;7.03;;;;;;;21.71;100.00;102049.00;1922713;72;39608;-81
2021/07/22 22:47:29;;;;;;;8.68;7.62;;;;;;;21.82;100.00;102046.70;1829922;78;86194;-73
2021/07/22 22:52:55;;;;;;;8.90;8.00;;;;;;;21.76;100.00;102044.02;1926567;72;39576;-80
2021/07/22 22:58:20;;;;;;;8.95;7.70;;;;;;;21.69;100.00;102044.27;1830377;76;86317;-73
2021/07/22 23:03:45;;;;;;;8.60;7.75;;;;;;;21.52;100.00;102031.53;1937102;72;39616;-76
2021/07/22 23:09:10;;;;;;;9.20;7.80;;;;;;;21.46;100.00;102022.36;1942154;72;39584;-73
2021/07/22 23:14:41;;;;;;;9.17;7.97;;;;;;;21.42;100.00;102024.77;1733304;81;86635;-73
2021/07/22 23:20:15;;;;;;;9.17;8.17;;;;;;;21.29;100.00;102037.88;1843264;76;86224;-73
2021/07/22 23:25:40;;;;;;;10.97;8.37;;;;;;;21.25;100.00;102041.11;1886503;74;86560;-81
2021/07/22 23:31:07;;;;;;;9.13;8.13;;;;;;;21.30;100.00;102036.72;1989031;70;39606;-83
2021/07/22 23:36:44;;;;;;;8.90;7.87;;;;;;;21.17;100.00;102043.34;1795916;76;86311;-73